Time;durP1;ratioP1;P1;durP2;ratioP2;P2;SDS_P1;SDS_P2;PMS_P1;PMS_P2;Temp;Humidity;BMP_temperature;BMP_pressure;BME280_temperature;BME280_humidity;BME280_pressure;Samples;Min_cycle;Max_cycle;Signal;HPM_P1;HPM_P2
2023/10/21 00:00:40;;;;;;;6.00;0.90;;;;;;;;;;5117469;28;20511;-73
2023/10/21 00:03:06;;;;;;;3.80;0.90;;;;;;;;;;5099530;28;20024;-72
2023/10/21 00:05:32;;;;;;;2.67;0.70;;;;;;;;;;5099630;28;20553;-75
2023/10/21 00:07:58;;;;;;;4.35;0.70;;;;;;;;;;5117252;28;20023;-75
2023/10/21 00:10:24;;;;;;;5.00;0.90;;;;;;;;;;5117518;28;20454;-75
2023/10/21 00:12:50;;;;;;;3.83;0.77;;;;;;;;;;5099461;28;20020;-73
2023/10/21 00:15:16;;;;;;;4.38;0.80;;;;;;;;;;5099294;28;20487;-73
2023/10/21 00:17:42;;;;;;;5.57;0.98;;;;;;;;;;5117498;28;20457;-73
2023/10/21 00:20:08;;;;;;;3.90;0.63;;;;;;;;;;5117609;28;20024;-72
2023/10/21 00:22:35;;;;;;;3.42;0.68;;;;;;;;;;5106242;28;20039;-73
2023/10/21 00:25:01;;;;;;;2.30;0.47;;;;;;;;;;5117457;28;20503;-72
2023/10/21 00:27:27;;;;;;;2.75;0.63;;;;;;;;;;5117426;28;20073;-72
2023/10/21 00:29:53;;;;;;;3.22;0.60;;;;;;;;;;5099044;28;20027;-73
2023/10/21 00:32:19;;;;;;;3.78;0.70;;;;;;;;;;5099199;28;20475;-73
2023/10/21 00:34:45;;;;;;;2.83;0.60;;;;;;;;;;5103034;28;20016;-73
2023/10/21 00:37:11;;;;;;;3.28;0.73;;;;;;;;;;5102584;28;20051;-73
2023/10/21 00:39:38;;;;;;;3.85;0.77;;;;;;;;;;5121061;28;20027;-73
2023/10/21 00:42:05;;;;;;;3.03;0.70;;;;;;;;;;5120837;28;20031;-72
2023/10/21 00:44:32;;;;;;;2.10;0.60;;;;;;;;;;5121101;28;20027;-73
2023/10/21 00:47:00;;;;;;;3.50;0.57;;;;;;;;;;5120940;28;20034;-72
2023/10/21 00:49:30;;;;;;;2.55;0.60;;;;;;;;;;5102496;28;20031;-73
2023/10/21 00:51:57;;;;;;;4.68;0.95;;;;;;;;;;5120933;28;20471;-74
2023/10/21 00:54:25;;;;;;;2.90;0.60;;;;;;;;;;5120772;28;20119;-73
2023/10/21 00:56:51;;;;;;;3.28;0.55;;;;;;;;;;5121113;28;20059;-72
2023/10/21 00:59:18;;;;;;;5.75;0.85;;;;;;;;;;5120635;28;20043;-72
2023/10/21 01:01:44;;;;;;;4.75;0.82;;;;;;;;;;5120656;28;20052;-73
2023/10/21 01:04:10;;;;;;;4.20;0.68;;;;;;;;;;5120714;28;20035;-71
2023/10/21 01:06:36;;;;;;;1.67;0.60;;;;;;;;;;5102262;28;20533;-71
2023/10/21 01:09:02;;;;;;;3.08;0.50;;;;;;;;;;5120299;28;20084;-73
2023/10/21 01:11:28;;;;;;;4.88;1.17;;;;;;;;;;5120718;28;20024;-72
2023/10/21 01:13:56;;;;;;;4.82;0.90;;;;;;;;;;5120523;28;20425;-72
2023/10/21 01:16:22;;;;;;;2.10;0.75;;;;;;;;;;5120511;28;20016;-73
2023/10/21 01:18:48;;;;;;;4.32;0.60;;;;;;;;;;5120414;28;20069;-73
2023/10/21 01:21:14;;;;;;;3.55;0.60;;;;;;;;;;5122693;27;20055;-73
2023/10/21 01:23:40;;;;;;;1.83;0.60;;;;;;;;;;5124703;27;20043;-73
2023/10/21 01:26:06;;;;;;;3.00;0.65;;;;;;;;;;5120269;28;20031;-73
2023/10/21 01:28:32;;;;;;;3.15;0.45;;;;;;;;;;5120161;28;20762;-72
2023/10/21 01:30:58;;;;;;;3.65;0.50;;;;;;;;;;5120296;28;20076;-72
2023/10/21 01:33:25;;;;;;;3.72;0.70;;;;;;;;;;5101815;28;20019;-74
2023/10/21 01:35:51;;;;;;;4.80;1.08;;;;;;;;;;5101722;28;20026;-73
2023/10/21 01:38:18;;;;;;;3.47;0.60;;;;;;;;;;5119827;28;20051;-74
2023/10/21 01:40:44;;;;;;;2.88;0.70;;;;;;;;;;5119883;28;20043;-73
2023/10/21 01:43:10;;;;;;;5.00;0.63;;;;;;;;;;5119720;28;20392;-73
2023/10/21 01:45:36;;;;;;;3.53;0.40;;;;;;;;;;5101939;28;20031;-73
2023/10/21 01:48:03;;;;;;;6.18;0.82;;;;;;;;;;5101401;28;20069;-73
2023/10/21 01:50:29;;;;;;;6.43;1.08;;;;;;;;;;5119845;28;20399;-73
2023/10/21 01:52:55;;;;;;;3.95;0.70;;;;;;;;;;5101124;28;20020;-74
2023/10/21 01:55:22;;;;;;;2.50;0.82;;;;;;;;;;5101469;28;20085;-72
2023/10/21 01:57:48;;;;;;;4.80;0.70;;;;;;;;;;5119683;28;20118;-72
2023/10/21 02:00:18;;;;;;;2.92;0.47;;;;;;;;;;5119667;28;20100;-72
2023/10/21 02:02:48;;;;;;;2.90;0.50;;;;;;;;;;5119491;28;20023;-73
2023/10/21 02:05:14;;;;;;;5.70;0.70;;;;;;;;;;5101294;28;20049;-72
2023/10/21 02:07:40;;;;;;;4.13;0.90;;;;;;;;;;5119118;28;20426;-72
2023/10/21 02:10:06;;;;;;;3.45;0.60;;;;;;;;;;5119227;28;20148;-72
2023/10/21 02:12:33;;;;;;;3.90;0.70;;;;;;;;;;5100988;28;20019;-72
2023/10/21 02:14:59;;;;;;;2.88;0.55;;;;;;;;;;5119351;28;20020;-73
2023/10/21 02:17:25;;;;;;;4.55;0.70;;;;;;;;;;5119398;28;20488;-73
2023/10/21 02:19:57;;;;;;;4.93;0.60;;;;;;;;;;5100988;28;20038;-73
2023/10/21 02:22:26;;;;;;;3.88;0.70;;;;;;;;;;5127000;27;20023;-73
2023/10/21 02:24:53;;;;;;;1.70;0.57;;;;;;;;;;5119224;28;20484;-74
2023/10/21 02:27:19;;;;;;;3.90;0.80;;;;;;;;;;5119140;28;20039;-74
2023/10/21 02:29:45;;;;;;;2.53;0.70;;;;;;;;;;5118956;28;20493;-74
2023/10/21 02:32:12;;;;;;;3.65;0.70;;;;;;;;;;5119037;28;20016;-74
2023/10/21 02:34:38;;;;;;;3.92;0.90;;;;;;;;;;5119036;28;20480;-74
2023/10/21 02:37:04;;;;;;;2.72;0.50;;;;;;;;;;5118673;28;20112;-74
2023/10/21 02:39:30;;;;;;;3.92;0.73;;;;;;;;;;5100464;28;20023;-74
2023/10/21 02:41:56;;;;;;;3.13;0.70;;;;;;;;;;5100338;28;20020;-73
2023/10/21 02:44:22;;;;;;;1.92;0.50;;;;;;;;;;5100412;28;20031;-73
2023/10/21 02:46:51;;;;;;;2.20;0.73;;;;;;;;;;5118694;28;20035;-73
2023/10/21 02:49:16;;;;;;;4.43;0.68;;;;;;;;;;5118373;28;20038;-72
2023/10/21 02:51:42;;;;;;;4.20;0.82;;;;;;;;;;5118468;28;20016;-72
2023/10/21 02:54:08;;;;;;;3.90;0.75;;;;;;;;;;5118681;28;20024;-73
2023/10/21 02:56:35;;;;;;;4.50;0.70;;;;;;;;;;5099623;28;20093;-73
2023/10/21 02:59:02;;;;;;;4.40;0.70;;;;;;;;;;5100262;28;20020;-72
2023/10/21 03:01:28;;;;;;;4.43;1.10;;;;;;;;;;5118342;28;20042;-72
2023/10/21 03:03:55;;;;;;;5.75;1.10;;;;;;;;;;5118450;28;20019;-72
2023/10/21 03:06:21;;;;;;;2.83;0.70;;;;;;;;;;5118342;28;20019;-73
2023/10/21 03:08:47;;;;;;;4.88;0.90;;;;;;;;;;5118075;28;20073;-73
2023/10/21 03:11:14;;;;;;;4.95;0.70;;;;;;;;;;5118104;28;20016;-73
2023/10/21 03:13:40;;;;;;;3.10;0.57;;;;;;;;;;5100031;28;20050;-73
2023/10/21 03:16:07;;;;;;;4.00;0.60;;;;;;;;;;5118330;28;20145;-74
2023/10/21 03:18:33;;;;;;;5.90;0.90;;;;;;;;;;5099818;28;20405;-73
2023/10/21 03:20:59;;;;;;;3.65;0.70;;;;;;;;;;5100275;28;20028;-73
2023/10/21 03:23:25;;;;;;;3.72;0.80;;;;;;;;;;5125224;27;20023;-72
2023/10/21 03:25:55;;;;;;;4.95;0.68;;;;;;;;;;5117881;28;20049;-74
2023/10/21 03:28:22;;;;;;;3.50;0.77;;;;;;;;;;5118048;28;20031;-74
2023/10/21 03:30:48;;;;;;;4.05;0.98;;;;;;;;;;5118188;28;20019;-73
2023/10/21 03:33:14;;;;;;;4.43;0.60;;;;;;;;;;5117933;28;20024;-73
2023/10/21 03:35:40;;;;;;;3.28;0.70;;;;;;;;;;5100080;28;20044;-73
2023/10/21 03:38:06;;;;;;;2.75;0.57;;;;;;;;;;5117598;28;20520;-73
2023/10/21 03:40:33;;;;;;;5.50;1.00;;;;;;;;;;5117809;28;20023;-73
2023/10/21 03:42:59;;;;;;;4.18;0.80;;;;;;;;;;5117566;28;20483;-73
2023/10/21 03:45:25;;;;;;;4.28;0.68;;;;;;;;;;5118164;28;20027;-73
2023/10/21 03:47:51;;;;;;;2.97;0.77;;;;;;;;;;5117578;28;20027;-73
2023/10/21 03:50:17;;;;;;;2.58;0.60;;;;;;;;;;5099443;28;20020;-73
2023/10/21 03:52:43;;;;;;;5.05;0.80;;;;;;;;;;5099005;28;20399;-73
2023/10/21 03:55:09;;;;;;;3.38;0.52;;;;;;;;;;5099373;28;20030;-72
2023/10/21 03:57:35;;;;;;;3.88;0.73;;;;;;;;;;5117605;28;20435;-72
2023/10/21 04:00:04;;;;;;;2.40;0.63;;;;;;;;;;5099459;28;20051;-72
2023/10/21 04:02:31;;;;;;;2.97;0.80;;;;;;;;;;5099228;28;20028;-72
2023/10/21 04:04:57;;;;;;;1.27;0.40;;;;;;;;;;5117772;28;20076;-72
2023/10/21 04:07:23;;;;;;;4.50;0.70;;;;;;;;;;5117583;28;20024;-73
2023/10/21 04:09:49;;;;;;;3.45;0.80;;;;;;;;;;5121657;28;20028;-73
2023/10/21 04:12:15;;;;;;;4.97;0.80;;;;;;;;;;5121813;28;20383;-73
2023/10/21 04:14:41;;;;;;;4.82;0.77;;;;;;;;;;5121770;28;20020;-73
2023/10/21 04:17:07;;;;;;;2.92;0.60;;;;;;;;;;5121652;28;20369;-72
2023/10/21 04:19:33;;;;;;;5.30;0.65;;;;;;;;;;5103387;28;20495;-73
2023/10/21 04:21:59;;;;;;;4.13;0.70;;;;;;;;;;5111226;27;20406;-73
2023/10/21 04:24:25;;;;;;;3.50;0.75;;;;;;;;;;5121849;28;20024;-74
2023/10/21 04:26:51;;;;;;;5.57;0.82;;;;;;;;;;5121360;28;20038;-75
2023/10/21 04:29:17;;;;;;;4.50;0.82;;;;;;;;;;5121501;28;20030;-75
2023/10/21 04:31:43;;;;;;;4.30;0.85;;;;;;;;;;5121180;28;20032;-73
2023/10/21 04:34:09;;;;;;;4.40;0.85;;;;;;;;;;5121505;28;20026;-74
2023/10/21 04:36:35;;;;;;;2.90;0.70;;;;;;;;;;5120943;28;20383;-73
2023/10/21 04:39:01;;;;;;;4.15;0.73;;;;;;;;;;5102983;28;20484;-74
2023/10/21 04:41:27;;;;;;;5.55;0.98;;;;;;;;;;5120980;28;20024;-74
2023/10/21 04:43:53;;;;;;;5.70;0.80;;;;;;;;;;5121209;28;20019;-74
2023/10/21 04:46:19;;;;;;;2.58;0.73;;;;;;;;;;5121131;28;20020;-74
2023/10/21 04:48:45;;;;;;;3.05;0.60;;;;;;;;;;5121183;28;20027;-74
2023/10/21 04:51:11;;;;;;;2.78;0.80;;;;;;;;;;5120769;28;20060;-72
2023/10/21 04:53:37;;;;;;;3.47;0.60;;;;;;;;;;5120859;28;20502;-74
2023/10/21 04:56:03;;;;;;;3.00;0.70;;;;;;;;;;5120555;28;20361;-72
2023/10/21 04:58:29;;;;;;;4.20;1.10;;;;;;;;;;5121153;28;20688;-72
2023/10/21 05:00:55;;;;;;;5.88;0.90;;;;;;;;;;5101678;28;20051;-73
2023/10/21 05:03:22;;;;;;;4.57;0.75;;;;;;;;;;5119705;28;20031;-73
2023/10/21 05:05:48;;;;;;;3.72;0.90;;;;;;;;;;5101175;28;20030;-73
2023/10/21 05:08:14;;;;;;;3.28;0.75;;;;;;;;;;5101370;28;20028;-73
2023/10/21 05:10:40;;;;;;;4.07;0.88;;;;;;;;;;5119227;28;20035;-73
2023/10/21 05:13:06;;;;;;;5.00;0.80;;;;;;;;;;5101270;28;20475;-73
2023/10/21 05:15:32;;;;;;;3.20;0.60;;;;;;;;;;5119285;28;20019;-73
2023/10/21 05:17:58;;;;;;;5.32;0.90;;;;;;;;;;5119464;28;20027;-73
2023/10/21 05:20:24;;;;;;;5.38;0.63;;;;;;;;;;5118873;28;20038;-73
2023/10/21 05:22:50;;;;;;;5.15;0.90;;;;;;;;;;5125961;28;20108;-74
2023/10/21 05:25:16;;;;;;;4.93;0.90;;;;;;;;;;5100663;28;20023;-73
2023/10/21 05:27:42;;;;;;;6.55;1.00;;;;;;;;;;5119426;28;20020;-74
2023/10/21 05:30:08;;;;;;;2.65;0.70;;;;;;;;;;5118742;28;20039;-74
2023/10/21 05:32:34;;;;;;;3.58;0.90;;;;;;;;;;5119283;28;20030;-74
2023/10/21 05:35:01;;;;;;;4.70;0.95;;;;;;;;;;5100669;28;20483;-74
2023/10/21 05:37:27;;;;;;;5.97;0.90;;;;;;;;;;5118952;28;20019;-74
2023/10/21 05:39:53;;;;;;;5.18;0.90;;;;;;;;;;5118660;28;20110;-74
2023/10/21 05:42:19;;;;;;;2.90;0.63;;;;;;;;;;5100505;28;20054;-74
2023/10/21 05:44:45;;;;;;;5.38;0.95;;;;;;;;;;5118973;28;20066;-74
2023/10/21 05:47:11;;;;;;;4.45;0.75;;;;;;;;;;5118962;28;20369;-74
2023/10/21 05:49:37;;;;;;;7.07;1.13;;;;;;;;;;5118666;28;20028;-73
2023/10/21 05:52:03;;;;;;;6.55;0.90;;;;;;;;;;5118763;28;20024;-73
2023/10/21 05:54:32;;;;;;;4.85;0.80;;;;;;;;;;5118577;28;20031;-74
2023/10/21 05:56:58;;;;;;;3.22;0.90;;;;;;;;;;5118710;28;20095;-73
2023/10/21 05:59:24;;;;;;;3.45;0.60;;;;;;;;;;5100496;28;20055;-73
2023/10/21 06:01:50;;;;;;;5.13;0.80;;;;;;;;;;5062397;28;1100993;-74
2023/10/21 06:04:16;;;;;;;6.18;1.23;;;;;;;;;;5119330;28;20031;-74
2023/10/21 06:06:42;;;;;;;4.57;0.93;;;;;;;;;;5119385;28;20062;-74
2023/10/21 06:09:09;;;;;;;4.78;0.90;;;;;;;;;;5119418;28;20031;-73
2023/10/21 06:11:36;;;;;;;4.97;0.90;;;;;;;;;;5100975;28;20026;-73
2023/10/21 06:14:02;;;;;;;3.72;1.02;;;;;;;;;;5119309;28;20023;-73
2023/10/21 06:16:29;;;;;;;5.82;1.10;;;;;;;;;;5119442;28;20022;-73
2023/10/21 06:18:55;;;;;;;6.35;0.95;;;;;;;;;;5119177;28;20027;-73
2023/10/21 06:21:22;;;;;;;4.07;0.75;;;;;;;;;;5122619;27;20015;-73
2023/10/21 06:23:48;;;;;;;4.15;1.05;;;;;;;;;;5122663;27;20085;-73
2023/10/21 06:26:14;;;;;;;6.18;0.82;;;;;;;;;;5100778;28;20022;-73
2023/10/21 06:28:40;;;;;;;5.80;0.90;;;;;;;;;;5119012;28;20055;-74
2023/10/21 06:31:06;;;;;;;3.20;0.88;;;;;;;;;;5100185;28;20023;-72
2023/10/21 06:33:32;;;;;;;5.55;1.20;;;;;;;;;;5100660;28;20153;-72
2023/10/21 06:35:58;;;;;;;7.30;0.98;;;;;;;;;;5118828;28;20023;-72
2023/10/21 06:38:24;;;;;;;4.13;0.68;;;;;;;;;;5100406;28;20107;-74
2023/10/21 06:40:50;;;;;;;4.95;0.75;;;;;;;;;;5100310;28;20024;-72
2023/10/21 06:43:16;;;;;;;7.28;0.95;;;;;;;;;;5118663;28;20066;-73
2023/10/21 06:45:45;;;;;;;4.18;1.20;;;;;;;;;;5118945;28;20028;-73
2023/10/21 06:48:11;;;;;;;4.03;0.75;;;;;;;;;;5100392;28;20101;-73
2023/10/21 06:50:37;;;;;;;5.22;1.00;;;;;;;;;;5100373;28;20494;-72
2023/10/21 06:53:03;;;;;;;5.30;1.00;;;;;;;;;;5118405;28;20526;-73
2023/10/21 06:55:29;;;;;;;5.20;1.02;;;;;;;;;;5118579;28;20016;-72
2023/10/21 06:57:55;;;;;;;5.30;1.20;;;;;;;;;;5100365;28;20027;-72
2023/10/21 07:00:22;;;;;;;6.30;1.13;;;;;;;;;;5118442;28;20047;-72
2023/10/21 07:02:47;;;;;;;5.70;1.05;;;;;;;;;;5100236;28;20399;-73
2023/10/21 07:05:14;;;;;;;5.03;1.15;;;;;;;;;;5118397;28;20102;-74
2023/10/21 07:07:42;;;;;;;5.30;1.27;;;;;;;;;;5118093;28;20482;-74
2023/10/21 07:10:09;;;;;;;6.30;0.98;;;;;;;;;;5099893;28;20031;-72
2023/10/21 07:12:36;;;;;;;4.63;0.85;;;;;;;;;;5118353;28;20054;-72
2023/10/21 07:15:02;;;;;;;6.68;1.10;;;;;;;;;;5099928;28;20028;-73
2023/10/21 07:17:29;;;;;;;5.97;1.17;;;;;;;;;;5118348;28;20099;-72
2023/10/21 07:19:56;;;;;;;4.60;0.85;;;;;;;;;;5118029;28;20023;-72
2023/10/21 07:22:22;;;;;;;5.57;1.30;;;;;;;;;;5125398;27;20526;-72
2023/10/21 07:24:48;;;;;;;4.60;1.20;;;;;;;;;;5118102;28;20032;-73
2023/10/21 07:27:14;;;;;;;3.22;0.85;;;;;;;;;;5118040;28;20062;-73
2023/10/21 07:29:41;;;;;;;6.88;1.23;;;;;;;;;;5118016;28;20050;-73
2023/10/21 07:32:07;;;;;;;5.63;1.10;;;;;;;;;;5099759;28;20073;-74
2023/10/21 07:34:33;;;;;;;6.68;1.20;;;;;;;;;;5117803;28;20023;-74
2023/10/21 07:36:59;;;;;;;4.60;1.05;;;;;;;;;;5117606;28;20012;-73
2023/10/21 07:39:26;;;;;;;6.80;1.35;;;;;;;;;;5099627;28;20480;-74
2023/10/21 07:41:53;;;;;;;8.65;1.40;;;;;;;;;;5117423;28;20023;-74
2023/10/21 07:44:19;;;;;;;7.00;1.00;;;;;;;;;;5117815;28;20027;-74
2023/10/21 07:46:45;;;;;;;7.10;1.40;;;;;;;;;;5117683;28;20027;-74
2023/10/21 07:49:12;;;;;;;9.73;1.48;;;;;;;;;;5117591;28;20020;-74
2023/10/21 07:51:38;;;;;;;5.20;1.15;;;;;;;;;;5117488;28;20016;-75
2023/10/21 07:54:04;;;;;;;8.27;1.40;;;;;;;;;;5099420;28;20381;-73
2023/10/21 07:56:30;;;;;;;7.70;1.10;;;;;;;;;;5117333;28;20024;-73
2023/10/21 07:58:56;;;;;;;5.82;1.13;;;;;;;;;;5117753;28;20024;-73
2023/10/21 08:01:22;;;;;;;6.28;1.23;;;;;;;;;;5117334;28;20043;-68
2023/10/21 08:03:48;;;;;;;8.00;1.33;;;;;;;;;;5117561;28;20080;-68
2023/10/21 08:06:14;;;;;;;8.65;1.25;;;;;;;;;;5099254;28;20051;-67
2023/10/21 08:08:42;;;;;;;4.47;1.02;;;;;;;;;;5117481;28;20028;-69
2023/10/21 08:11:08;;;;;;;6.25;1.10;;;;;;;;;;5117225;28;20043;-67
2023/10/21 08:13:34;;;;;;;7.93;1.33;;;;;;;;;;5099308;28;20219;-68
2023/10/21 08:16:00;;;;;;;6.53;1.27;;;;;;;;;;5117347;28;20023;-68
2023/10/21 08:18:26;;;;;;;6.78;1.20;;;;;;;;;;5117655;28;20049;-67
2023/10/21 08:20:52;;;;;;;6.60;1.10;;;;;;;;;;5117509;28;20438;-67
2023/10/21 08:23:18;;;;;;;4.72;1.10;;;;;;;;;;5125105;28;20028;-68
2023/10/21 08:25:44;;;;;;;7.65;1.20;;;;;;;;;;5117307;28;20023;-67
2023/10/21 08:28:11;;;;;;;6.50;1.15;;;;;;;;;;5117535;28;20031;-66
2023/10/21 08:30:37;;;;;;;4.93;0.93;;;;;;;;;;5098877;28;20112;-68
2023/10/21 08:33:05;;;;;;;7.10;1.58;;;;;;;;;;5097370;28;20028;-68
2023/10/21 08:35:32;;;;;;;4.22;1.15;;;;;;;;;;5113979;28;20450;-70
2023/10/21 08:37:58;;;;;;;4.35;1.10;;;;;;;;;;5131638;28;20019;-67
2023/10/21 08:40:25;;;;;;;7.70;1.50;;;;;;;;;;5118139;28;20019;-68
2023/10/21 08:42:51;;;;;;;6.18;0.90;;;;;;;;;;5128894;28;20027;-68
2023/10/21 08:45:19;;;;;;;5.32;1.40;;;;;;;;;;5099502;28;20515;-67
2023/10/21 08:47:46;;;;;;;5.30;0.90;;;;;;;;;;5116914;28;20041;-67
2023/10/21 08:50:15;;;;;;;10.07;1.30;;;;;;;;;;5118684;28;20015;-66
2023/10/21 08:52:42;;;;;;;6.10;1.38;;;;;;;;;;5123781;28;20026;-67
2023/10/21 08:55:09;;;;;;;5.72;1.40;;;;;;;;;;5119952;28;20055;-68
2023/10/21 08:57:36;;;;;;;6.35;1.42;;;;;;;;;;5119972;27;20411;-66
2023/10/21 09:00:05;;;;;;;8.93;1.17;;;;;;;;;;5119054;28;20043;-67
2023/10/21 09:02:31;;;;;;;8.07;1.58;;;;;;;;;;5117870;27;20058;-67
2023/10/21 09:04:57;;;;;;;7.22;1.27;;;;;;;;;;5121799;27;20027;-68
2023/10/21 09:07:22;;;;;;;6.68;1.13;;;;;;;;;;5128179;27;20024;-69
2023/10/21 09:09:49;;;;;;;5.70;1.42;;;;;;;;;;5120328;28;20027;-69
2023/10/21 09:12:15;;;;;;;9.23;1.77;;;;;;;;;;5119407;28;20034;-69
2023/10/21 09:14:51;;;;;;;6.43;1.25;;;;;;;;;;5119279;28;20026;-70
2023/10/21 09:17:17;;;;;;;6.63;1.17;;;;;;;;;;5119158;28;20027;-69
2023/10/21 09:19:43;;;;;;;7.15;1.17;;;;;;;;;;5120805;28;20028;-69
2023/10/21 09:22:22;;;;;;;8.65;1.40;;;;;;;;;;5127772;27;20058;-69
2023/10/21 09:24:48;;;;;;;6.15;1.27;;;;;;;;;;5120407;28;20073;-69
2023/10/21 09:27:14;;;;;;;4.40;1.10;;;;;;;;;;5120078;28;20031;-69
2023/10/21 09:29:41;;;;;;;6.65;1.10;;;;;;;;;;5119865;28;20031;-68
2023/10/21 09:32:07;;;;;;;8.80;1.38;;;;;;;;;;5119785;28;20062;-69
2023/10/21 09:34:33;;;;;;;3.88;1.00;;;;;;;;;;5117580;28;20016;-71
2023/10/21 09:36:59;;;;;;;6.55;1.15;;;;;;;;;;5119534;28;20038;-72
2023/10/21 09:39:26;;;;;;;6.82;1.10;;;;;;;;;;5118503;28;20114;-72
2023/10/21 09:41:53;;;;;;;6.80;1.58;;;;;;;;;;5120831;27;20028;-70
2023/10/21 09:44:19;;;;;;;6.00;1.00;;;;;;;;;;5126461;27;20068;-71
2023/10/21 09:46:46;;;;;;;4.60;1.20;;;;;;;;;;5123701;27;20037;-73
2023/10/21 09:49:15;;;;;;;4.28;1.02;;;;;;;;;;5119365;28;20437;-70
2023/10/21 09:51:46;;;;;;;5.35;0.90;;;;;;;;;;5126470;27;20031;-68
2023/10/21 09:54:14;;;;;;;6.10;1.15;;;;;;;;;;5119414;28;20024;-72
2023/10/21 09:56:40;;;;;;;5.75;0.95;;;;;;;;;;5119425;28;20028;-69
2023/10/21 09:59:07;;;;;;;3.97;0.65;;;;;;;;;;5122943;27;20466;-67
2023/10/21 10:01:37;;;;;;;4.47;0.77;;;;;;;;;;5119508;28;20044;-69
2023/10/21 10:04:05;;;;;;;6.38;1.00;;;;;;;;;;5119260;28;20016;-72
2023/10/21 10:06:32;;;;;;;3.67;0.80;;;;;;;;;;5117937;28;20027;-69
2023/10/21 10:08:58;;;;;;;7.80;1.20;;;;;;;;;;5119155;28;20124;-67
2023/10/21 10:11:25;;;;;;;5.25;1.23;;;;;;;;;;5100667;28;20023;-68
2023/10/21 10:13:51;;;;;;;4.05;1.05;;;;;;;;;;5100729;28;20020;-70
2023/10/21 10:16:25;;;;;;;3.33;0.90;;;;;;;;;;5123723;27;20019;-68
2023/10/21 10:18:51;;;;;;;4.65;1.20;;;;;;;;;;5104643;28;20119;-69
2023/10/21 10:21:18;;;;;;;4.65;1.20;;;;;;;;;;5117898;28;20156;-73
2023/10/21 10:23:58;;;;;;;5.85;1.00;;;;;;;;;;5099516;28;20523;-72
2023/10/21 10:26:42;;;;;;;2.30;0.63;;;13.10;99.90;;;;;;5099804;28;20034;-73
2023/10/21 10:29:26;;;;;;;5.80;0.80;;;13.00;99.90;;;;;;5118463;28;20365;-74
2023/10/21 10:32:16;;;;;;;1.33;0.60;;;12.80;99.90;;;;;;5100748;28;20064;-72
2023/10/21 10:34:51;;;;;;;2.35;0.63;;;12.70;99.90;;;;;;5113700;27;20369;-72
2023/10/21 10:37:37;;;;;;;1.95;0.40;;;12.70;99.90;;;;;;5108207;27;20020;-70
2023/10/21 10:40:36;;;;;;;4.00;0.60;;;12.60;99.90;;;;;;5120030;27;20023;-78
2023/10/21 10:43:03;;;;;;;2.92;0.50;;;12.50;99.90;;;;;;5112898;28;20064;-73
2023/10/21 10:45:32;;;;;;;1.65;0.60;;;12.50;99.90;;;;;;5119422;27;20494;-72
2023/10/21 10:48:00;;;;;;;2.65;0.50;;;12.50;99.90;;;;;;5099928;28;20430;-71
2023/10/21 10:50:26;;;;;;;3.90;0.40;;;12.50;99.90;;;;;;5120399;27;20019;-74
2023/10/21 10:52:53;;;;;;;3.95;0.80;;;12.50;99.90;;;;;;5112928;27;20026;-72
2023/10/21 10:55:19;;;;;;;2.90;0.70;;;12.60;99.90;;;;;;5106502;28;20016;-72
2023/10/21 10:57:46;;;;;;;2.70;0.73;;;12.60;99.90;;;;;;5118137;28;20031;-72
2023/10/21 11:00:20;;;;;;;0.85;0.35;;;12.60;99.90;;;;;;5118392;28;20620;-79
2023/10/21 11:02:47;;;;;;;3.45;0.68;;;12.60;99.90;;;;;;5118125;28;20079;-72
2023/10/21 11:05:20;;;;;;;1.30;0.40;;;12.60;99.90;;;;;;5116721;28;20181;-71
2023/10/21 11:07:46;;;;;;;1.97;0.60;;;12.60;99.90;;;;;;5117740;28;20024;-75
2023/10/21 11:10:17;;;;;;;1.48;0.55;;;12.50;99.90;;;;;;5118104;27;20027;-75
2023/10/21 11:12:43;;;;;;;1.42;0.40;;;12.50;99.90;;;;;;5115559;28;20024;-75
2023/10/21 11:15:12;;;;;;;0.70;0.30;;;12.50;99.90;;;;;;5117864;28;20054;-74
2023/10/21 11:17:39;;;;;;;0.77;0.30;;;12.50;99.90;;;;;;5117462;28;20034;-72
2023/10/21 11:20:07;;;;;;;1.65;0.52;;;12.50;99.90;;;;;;5099750;28;20027;-75
2023/10/21 11:22:33;;;;;;;0.60;0.20;;;12.50;99.90;;;;;;5117503;28;20012;-75
2023/10/21 11:24:59;;;;;;;1.25;0.40;;;12.60;99.90;;;;;;5118005;28;20369;-73
2023/10/21 11:27:26;;;;;;;1.65;0.40;;;12.70;99.90;;;;;;5117409;28;20022;-75
2023/10/21 11:29:53;;;;;;;0.93;0.30;;;12.70;99.90;;;;;;5117837;28;20046;-74
2023/10/21 11:32:27;;;;;;;2.40;0.43;;;12.80;99.90;;;;;;5100327;28;20108;-74
2023/10/21 11:34:53;;;;;;;1.60;0.50;;;12.90;99.90;;;;;;5093907;28;20059;-73
2023/10/21 11:37:19;;;;;;;1.88;0.60;;;12.90;99.90;;;;;;5127630;27;20454;-70
2023/10/21 11:39:46;;;;;;;2.78;0.57;;;12.90;99.90;;;;;;5125776;27;20056;-73
2023/10/21 11:42:18;;;;;;;1.30;0.40;;;13.00;99.90;;;;;;5110628;28;20500;-72
2023/10/21 11:44:57;;;;;;;2.72;0.70;;;13.00;99.90;;;;;;5119032;27;20019;-73
2023/10/21 11:47:27;;;;;;;1.85;0.40;;;13.00;99.90;;;;;;5117651;28;20026;-73
2023/10/21 11:49:57;;;;;;;1.27;0.47;;;13.00;99.90;;;;;;5117413;28;20022;-73
2023/10/21 11:52:26;;;;;;;2.38;0.73;;;13.00;99.90;;;;;;5126561;27;20496;-73
2023/10/21 12:40:33;;;;;;;1.13;0.40;;;13.00;99.90;;;;;;5120975;28;20031;-73
2023/10/21 12:43:47;;;;;;;0.73;0.40;;;13.00;99.90;;;;;;5114413;28;20030;-71
2023/10/21 12:45:46;;;;;;;1.23;0.40;;;12.90;99.90;;;;;;5111089;27;20058;-72
2023/10/21 12:48:18;;;;;;;1.75;0.47;;;12.90;99.90;;;;;;5120779;28;20023;-72
2023/10/21 12:50:50;;;;;;;1.58;0.35;;;12.90;99.90;;;;;;5128034;27;20035;-71
2023/10/21 12:53:19;;;;;;;1.00;0.32;;;12.90;99.90;;;;;;5103856;28;20027;-71
2023/10/21 12:55:46;;;;;;;3.45;0.65;;;13.00;99.90;;;;;;5120604;28;20098;-70
2023/10/21 12:58:11;;;;;;;1.15;0.35;;;13.00;99.90;;;;;;5102347;28;20430;-70
2023/10/21 13:00:37;;;;;;;1.25;0.50;;;13.00;99.90;;;;;;5120416;28;20052;-71
2023/10/21 13:03:10;;;;;;;1.52;0.40;;;13.00;99.90;;;;;;5120074;28;20032;-71
2023/10/21 13:05:39;;;;;;;;;;;12.90;99.90;;;;;;5121166;28;20026;-69
2023/10/21 13:08:09;;;;;;;2.00;0.40;;;12.90;99.90;;;;;;5088703;28;20279;-68
2023/10/21 13:10:35;;;;;;;1.35;0.40;;;12.90;99.90;;;;;;5101953;28;20495;-70
2023/10/21 13:13:01;;;;;;;1.77;0.52;;;12.90;99.90;;;;;;5120373;27;20496;-70
2023/10/21 13:15:27;;;;;;;2.25;0.45;;;12.80;99.90;;;;;;5116335;27;20019;-69
2023/10/21 13:17:52;;;;;;;0.90;0.30;;;12.80;99.90;;;;;;5124860;27;20437;-68
2023/10/21 13:20:18;;;;;;;1.10;0.40;;;12.90;99.90;;;;;;5119649;28;20080;-68
2023/10/21 13:22:48;;;;;;;0.75;0.40;;;12.90;99.90;;;;;;5130305;27;20060;-70
2023/10/21 13:25:13;;;;;;;1.88;0.47;;;12.90;99.90;;;;;;5119187;28;20114;-70
2023/10/21 13:27:40;;;;;;;0.85;0.30;;;12.80;99.90;;;;;;5101556;28;20059;-69
2023/10/21 13:30:10;;;;;;;1.02;0.40;;;12.90;99.90;;;;;;5126579;27;20035;-70
2023/10/21 13:32:44;;;;;;;0.68;0.50;;;12.90;99.90;;;;;;5101364;28;20043;-69
2023/10/21 13:35:09;;;;;;;1.67;0.40;;;12.90;99.90;;;;;;5119793;28;20107;-70
2023/10/21 13:37:39;;;;;;;0.98;0.20;;;12.90;99.90;;;;;;5119246;28;20067;-69
2023/10/21 13:40:14;;;;;;;0.90;0.30;;;13.00;99.90;;;;;;5119350;28;20051;-69
2023/10/21 13:42:45;;;;;;;0.70;0.35;;;13.00;99.90;;;;;;5119501;28;20063;-69
2023/10/21 13:45:20;;;;;;;0.85;0.38;;;13.00;99.90;;;;;;5121084;27;20503;-68
2023/10/21 13:47:53;;;;;;;0.93;0.38;;;13.00;99.90;;;;;;5107786;28;20514;-69
2023/10/21 13:50:23;;;;;;;1.02;0.30;;;13.00;99.90;;;;;;5109811;27;20123;-69
2023/10/21 13:53:01;;;;;;;0.80;0.40;;;13.10;99.90;;;;;;5106276;28;20055;-70
2023/10/21 13:55:27;;;;;;;0.80;0.50;;;13.10;99.90;;;;;;5119592;28;20024;-69
2023/10/21 13:57:53;;;;;;;1.13;0.38;;;13.10;99.90;;;;;;5119557;28;20023;-70
2023/10/21 14:03:19;;;;;;;0.52;0.30;;;13.10;99.90;;;;;;5118740;28;20106;-70
2023/10/21 14:05:45;;;;;;;1.33;0.40;;;13.20;99.90;;;;;;5119397;28;20028;-70
2023/10/21 14:08:13;;;;;;;1.05;0.40;;;13.20;99.90;;;;;;5118972;28;20376;-68
2023/10/21 14:10:39;;;;;;;2.25;0.60;;;13.20;99.90;;;;;;5118959;28;20019;-69
2023/10/21 14:13:06;;;;;;;1.50;0.45;;;13.20;99.90;;;;;;5118915;28;20099;-70
2023/10/21 14:15:33;;;;;;;0.70;0.35;;;13.20;99.90;;;;;;5117722;28;20011;-76
2023/10/21 14:18:00;;;;;;;1.60;0.60;;;13.20;99.90;;;;;;5118196;28;20027;-71
2023/10/21 14:20:26;;;;;;;1.80;0.55;;;13.30;99.90;;;;;;5118470;28;20023;-70
2023/10/21 14:22:52;;;;;;;3.58;0.57;;;13.30;99.90;;;;;;5118281;28;20028;-70
2023/10/21 14:25:18;;;;;;;2.22;0.60;;;13.20;99.90;;;;;;5117023;28;20042;-70
2023/10/21 14:27:46;;;;;;;2.25;0.60;;;13.30;99.90;;;;;;5118924;28;20023;-69
2023/10/21 14:30:11;;;;;;;4.43;0.82;;;13.30;99.90;;;;;;5100190;28;20115;-71
2023/10/21 14:32:38;;;;;;;2.47;0.60;;;13.20;99.90;;;;;;5118819;28;20063;-70
2023/10/21 14:35:07;;;;;;;4.35;0.77;;;13.20;99.90;;;;;;5118834;28;20024;-72
2023/10/21 14:37:37;;;;;;;4.72;0.90;;;13.20;99.90;;;;;;5100149;28;20023;-73
2023/10/21 14:40:08;;;;;;;2.38;0.70;;;13.20;99.90;;;;;;5118577;28;20031;-70
2023/10/21 14:42:39;;;;;;;5.68;0.85;;;13.20;99.90;;;;;;5118713;28;20030;-70
2023/10/21 14:45:08;;;;;;;2.95;0.70;;;13.20;99.90;;;;;;5119939;27;20020;-70
2023/10/21 14:47:35;;;;;;;3.88;0.73;;;13.20;99.90;;;;;;5117180;28;20032;-71
2023/10/21 14:50:02;;;;;;;3.92;0.80;;;13.30;99.90;;;;;;5119509;27;20026;-70
2023/10/21 14:52:29;;;;;;;2.97;0.73;;;13.30;99.90;;;;;;5126078;27;20429;-69
2023/10/21 14:54:58;;;;;;;3.50;0.60;;;13.30;99.90;;;;;;5117952;28;20072;-69
2023/10/21 14:57:26;;;;;;;2.00;0.88;;;13.30;99.90;;;;;;5118284;28;20460;-70